Time;durP1;ratioP1;P1;durP2;ratioP2;P2;SDS_P1;SDS_P2;PMS_P1;PMS_P2;Temp;Humidity;BMP_temperature;BMP_pressure;BME280_temperature;BME280_humidity;BME280_pressure;Samples;Min_cycle;Max_cycle;Signal;HPM_P1;HPM_P2
2022/09/11 00:01:32;;;;;;;9.05;7.65;;;16.00;99.90;;;;;;5041075;28;20028;-54
2022/09/11 00:04:18;;;;;;;8.32;7.35;;;16.10;99.90;;;;;;5040341;28;20394;-50
2022/09/11 00:07:04;;;;;;;8.98;6.90;;;16.20;99.90;;;;;;5032718;28;20485;-49
2022/09/11 00:09:50;;;;;;;8.70;7.80;;;16.20;99.90;;;;;;5034280;28;20055;-52
2022/09/11 00:12:36;;;;;;;9.55;8.15;;;16.10;99.90;;;;;;5039044;28;20029;-55
2022/09/11 00:15:22;;;;;;;8.40;7.50;;;16.20;99.90;;;;;;5043281;28;20517;-52
2022/09/11 00:18:10;;;;;;;8.57;7.25;;;16.20;99.90;;;;;;5030465;28;20036;-51
2022/09/11 00:20:57;;;;;;;8.07;7.25;;;16.20;99.90;;;;;;5043480;28;20456;-52
2022/09/11 00:23:43;;;;;;;8.77;7.90;;;16.20;99.90;;;;;;5046067;28;20074;-50
2022/09/11 00:26:30;;;;;;;7.78;7.00;;;16.20;99.90;;;;;;5030911;28;20389;-51
2022/09/11 00:29:16;;;;;;;9.25;8.02;;;16.20;99.90;;;;;;5038911;28;20044;-51
2022/09/11 00:32:02;;;;;;;7.90;7.00;;;16.30;99.90;;;;;;5052121;28;20082;-50
2022/09/11 00:34:49;;;;;;;8.57;7.28;;;16.30;99.90;;;;;;5052426;28;20059;-52
2022/09/11 00:37:35;;;;;;;10.65;7.90;;;16.40;99.90;;;;;;5052820;28;20043;-52
2022/09/11 00:40:22;;;;;;;9.38;7.88;;;16.30;99.90;;;;;;5052633;28;20029;-54
2022/09/11 00:43:09;;;;;;;9.43;8.10;;;16.40;99.90;;;;;;5052485;28;20021;-52
2022/09/11 00:46:01;;;;;;;9.38;8.02;;;16.30;99.90;;;;;;5052943;28;20060;-56
2022/09/11 00:48:48;;;;;;;10.95;8.55;;;16.30;99.90;;;;;;5051192;28;20021;-51
2022/09/11 00:51:36;;;;;;;12.52;7.63;;;16.20;99.90;;;;;;5065635;28;20226;-49
2022/09/11 00:54:34;;;;;;;8.73;6.68;;;16.20;99.90;;;;;;5060146;28;20044;-51
2022/09/11 00:57:24;;;;;;;9.52;7.55;;;16.20;99.90;;;;;;5044083;28;20036;-52
2022/09/11 01:00:12;;;;;;;10.02;8.13;;;16.20;99.90;;;;;;5050893;28;20029;-50
2022/09/11 01:02:58;;;;;;;10.15;9.05;;;16.20;99.90;;;;;;5052066;28;20057;-52
2022/09/11 01:05:45;;;;;;;11.27;8.80;;;16.20;99.90;;;;;;5038532;28;20029;-52
2022/09/11 01:08:31;;;;;;;9.77;8.07;;;16.10;99.90;;;;;;5036982;28;20584;-50
2022/09/11 01:11:27;;;;;;;9.10;8.20;;;16.10;99.90;;;;;;5037061;28;20064;-51
2022/09/11 01:14:27;;;;;;;8.50;7.57;;;16.00;99.90;;;;;;5052020;28;20021;-50
2022/09/11 01:17:33;;;;;;;8.63;7.47;;;16.00;99.90;;;;;;5052026;28;20501;-49
2022/09/11 01:20:37;;;;;;;8.63;7.72;;;15.90;99.90;;;;;;5051909;28;20489;-50
2022/09/11 01:23:38;;;;;;;7.97;7.18;;;15.90;99.90;;;;;;5050432;28;20063;-49
2022/09/11 01:26:57;;;;;;;8.30;7.32;;;15.70;99.90;;;;;;5052260;28;20524;-52
2022/09/11 01:30:05;;;;;;;8.85;7.60;;;15.60;99.90;;;;;;5005992;28;20412;-52
2022/09/11 01:33:16;;;;;;;7.90;7.20;;;15.30;99.90;;;;;;5052375;28;20021;-49
2022/09/11 01:36:18;;;;;;;8.30;7.50;;;15.40;99.90;;;;;;5053250;28;20021;-50
2022/09/11 01:39:04;;;;;;;8.30;7.45;;;15.60;99.90;;;;;;5052703;28;20040;-52
2022/09/11 01:42:00;;;;;;;8.85;7.53;;;15.70;99.90;;;;;;5050645;28;20112;-50
2022/09/11 01:44:56;;;;;;;8.43;6.90;;;15.80;99.90;;;;;;5051773;28;20445;-54
2022/09/11 01:47:44;;;;;;;9.30;7.00;;;15.80;99.90;;;;;;5052452;28;20021;-51
2022/09/11 01:50:32;;;;;;;7.30;6.60;;;16.00;99.90;;;;;;5052162;28;20068;-54
2022/09/11 01:53:21;;;;;;;7.88;6.68;;;16.10;99.90;;;;;;5052297;28;20025;-51
2022/09/11 01:56:16;;;;;;;7.43;6.60;;;16.00;99.90;;;;;;5052182;28;20033;-51
2022/09/11 01:59:05;;;;;;;8.43;7.57;;;16.10;99.90;;;;;;5051790;28;20021;-54
2022/09/11 02:02:01;;;;;;;8.57;7.40;;;16.00;99.90;;;;;;5051530;28;20581;-54
2022/09/11 02:05:04;;;;;;;9.35;7.85;;;16.00;99.90;;;;;;5051887;28;20083;-50
2022/09/11 02:08:06;;;;;;;10.68;7.90;;;15.90;99.90;;;;;;5051820;28;20366;-49
2022/09/11 02:10:56;;;;;;;8.13;7.32;;;15.70;99.90;;;;;;5051337;28;20025;-52
2022/09/11 02:13:52;;;;;;;8.27;7.47;;;15.70;99.90;;;;;;5051933;28;20533;-49
2022/09/11 02:17:04;;;;;;;8.57;7.68;;;15.60;99.90;;;;;;5051570;28;20036;-49
2022/09/11 02:19:53;;;;;;;10.75;7.63;;;15.60;99.90;;;;;;5051530;28;20500;-50
2022/09/11 02:22:39;;;;;;;9.00;8.10;;;15.70;99.90;;;;;;5050743;28;20665;-50
2022/09/11 02:25:25;;;;;;;10.15;7.88;;;15.70;99.90;;;;;;5050770;28;20112;-52
2022/09/11 02:28:11;;;;;;;9.23;8.20;;;15.80;99.90;;;;;;5036497;28;20071;-52
2022/09/11 02:30:57;;;;;;;8.68;7.22;;;15.80;99.90;;;;;;5050603;28;20033;-49
2022/09/11 02:33:43;;;;;;;8.43;7.63;;;15.80;99.90;;;;;;5050407;28;20040;-49
2022/09/11 02:36:47;;;;;;;8.43;7.50;;;15.80;99.90;;;;;;5049739;28;20086;-52
2022/09/11 02:40:11;;;;;;;8.10;7.32;;;15.80;99.90;;;;;;5050959;28;20029;-51
2022/09/11 02:43:12;;;;;;;10.30;8.40;;;15.80;99.90;;;;;;5010480;28;20429;-55
2022/09/11 02:46:07;;;;;;;9.27;7.70;;;15.80;99.90;;;;;;5036397;28;20646;-54
2022/09/11 02:49:28;;;;;;;7.88;7.07;;;15.70;99.90;;;;;;5050615;28;20195;-49
2022/09/11 02:52:23;;;;;;;8.40;7.50;;;15.80;99.90;;;;;;4969404;28;20424;-53
2022/09/11 02:55:37;;;;;;;10.88;8.20;;;15.80;99.90;;;;;;5051242;28;20374;-50
2022/09/11 02:58:29;;;;;;;8.70;7.82;;;15.80;99.90;;;;;;5050715;28;20029;-49
2022/09/11 03:01:16;;;;;;;11.52;7.70;;;15.80;99.90;;;;;;5049765;28;20477;-49
2022/09/11 03:04:02;;;;;;;8.88;7.80;;;15.70;99.90;;;;;;5051271;28;20033;-50
2022/09/11 03:06:49;;;;;;;8.88;7.15;;;15.60;99.90;;;;;;5050493;28;20029;-49
2022/09/11 03:09:35;;;;;;;9.60;8.25;;;15.60;99.90;;;;;;5050361;28;20033;-51
2022/09/11 03:12:21;;;;;;;9.73;7.93;;;15.60;99.90;;;;;;5050705;28;20404;-52
2022/09/11 03:15:09;;;;;;;9.05;7.35;;;15.60;99.90;;;;;;5050844;28;20029;-53
2022/09/11 03:17:56;;;;;;;8.38;7.53;;;15.60;99.90;;;;;;5050048;28;20029;-49
2022/09/11 03:20:46;;;;;;;9.35;7.30;;;15.70;99.90;;;;;;5049739;28;20108;-51
2022/09/11 03:23:32;;;;;;;9.27;6.85;;;15.70;99.90;;;;;;5050248;28;20025;-49
2022/09/11 03:26:18;;;;;;;8.10;7.30;;;15.80;99.90;;;;;;5036848;28;20037;-50
2022/09/11 03:29:04;;;;;;;8.43;7.47;;;15.70;99.90;;;;;;5051007;28;20029;-50
2022/09/11 03:31:51;;;;;;;8.10;7.30;;;15.70;99.90;;;;;;5049786;28;20024;-50
2022/09/11 03:34:37;;;;;;;8.30;7.50;;;15.70;99.90;;;;;;5049978;28;20515;-50
2022/09/11 03:37:25;;;;;;;8.10;7.28;;;15.60;99.90;;;;;;5050955;28;20112;-52
2022/09/11 03:40:10;;;;;;;7.35;6.65;;;15.60;99.90;;;;;;5050292;28;20029;-50
2022/09/11 03:42:58;;;;;;;8.50;6.97;;;15.70;99.90;;;;;;5035786;28;20397;-50
2022/09/11 03:45:48;;;;;;;8.43;7.53;;;15.70;99.90;;;;;;5049574;28;20053;-51
2022/09/11 03:48:34;;;;;;;8.23;7.43;;;15.70;99.90;;;;;;5050795;28;20473;-52
2022/09/11 03:51:20;;;;;;;8.43;7.63;;;15.60;99.90;;;;;;5050167;28;20057;-53
2022/09/11 03:54:06;;;;;;;7.85;7.15;;;15.60;99.90;;;;;;5049711;28;20025;-55
2022/09/11 03:56:52;;;;;;;8.80;7.28;;;15.60;99.90;;;;;;5049602;28;20108;-53
2022/09/11 03:59:38;;;;;;;7.82;7.10;;;15.60;99.90;;;;;;5035290;28;20033;-52
2022/09/11 04:02:24;;;;;;;8.48;7.55;;;15.60;99.90;;;;;;5049699;28;20516;-54
2022/09/11 04:05:10;;;;;;;10.80;8.43;;;15.50;99.90;;;;;;5035657;28;20448;-51
2022/09/11 04:07:56;;;;;;;9.70;8.60;;;15.50;99.90;;;;;;5036420;28;20033;-49
2022/09/11 04:10:42;;;;;;;9.82;8.07;;;15.50;99.90;;;;;;5050097;28;20493;-50
2022/09/11 04:13:29;;;;;;;9.55;7.78;;;15.50;99.90;;;;;;5051294;28;20025;-52
2022/09/11 04:16:17;;;;;;;9.23;8.32;;;15.50;99.90;;;;;;5036687;28;20068;-55
2022/09/11 04:19:04;;;;;;;11.48;8.82;;;15.60;99.90;;;;;;5051224;28;20106;-55
2022/09/11 04:21:50;;;;;;;10.60;8.65;;;15.70;99.90;;;;;;5035055;28;20051;-54
2022/09/11 04:24:36;;;;;;;9.63;8.65;;;15.60;99.90;;;;;;5049232;28;20044;-50
2022/09/11 04:27:23;;;;;;;10.45;8.80;;;15.50;99.90;;;;;;5048805;28;20689;-53
2022/09/11 04:30:09;;;;;;;9.55;8.55;;;15.50;99.90;;;;;;5049580;28;20090;-56
2022/09/11 04:32:55;;;;;;;10.57;8.82;;;15.40;99.90;;;;;;5049574;28;20025;-52
2022/09/11 04:35:42;;;;;;;10.82;8.85;;;15.30;99.90;;;;;;5050267;28;20025;-50
2022/09/11 04:38:28;;;;;;;10.63;9.52;;;15.30;99.90;;;;;;5049376;28;20091;-50
2022/09/11 04:41:15;;;;;;;11.52;10.32;;;15.30;99.90;;;;;;5034236;28;20035;-52
2022/09/11 04:44:01;;;;;;;12.15;9.90;;;15.30;99.90;;;;;;5049986;28;20021;-54
2022/09/11 04:46:47;;;;;;;11.48;10.27;;;15.20;99.90;;;;;;5049552;28;20025;-51
2022/09/11 04:49:34;;;;;;;11.57;9.40;;;15.30;99.90;;;;;;5050127;28;20025;-52
2022/09/11 04:52:20;;;;;;;13.32;11.27;;;15.20;99.90;;;;;;5048137;28;20119;-54
2022/09/11 04:55:06;;;;;;;12.45;11.00;;;15.10;99.90;;;;;;5034903;28;20116;-53
2022/09/11 04:57:52;;;;;;;12.25;10.93;;;15.10;99.90;;;;;;5050030;28;20067;-54
2022/09/11 05:00:39;;;;;;;13.65;12.00;;;15.00;99.90;;;;;;5053092;28;20436;-54
2022/09/11 05:03:25;;;;;;;15.02;11.57;;;15.20;99.90;;;;;;5039055;28;20032;-51
2022/09/11 05:06:15;;;;;;;13.65;12.05;;;15.20;99.90;;;;;;5053421;28;20708;-52
2022/09/11 05:09:05;;;;;;;17.17;13.82;;;15.20;99.90;;;;;;5053724;28;20033;-48
2022/09/11 05:11:51;;;;;;;14.88;13.32;;;15.20;99.90;;;;;;5051940;28;20025;-50
2022/09/11 05:14:37;;;;;;;15.27;13.73;;;15.20;99.90;;;;;;5052807;28;20044;-50
2022/09/11 05:17:23;;;;;;;17.38;12.45;;;15.20;99.90;;;;;;5052222;28;20021;-51
2022/09/11 05:20:09;;;;;;;14.60;12.02;;;15.40;99.90;;;;;;5051970;28;20123;-51
2022/09/11 05:22:55;;;;;;;16.65;13.30;;;15.40;99.90;;;;;;5051798;28;20122;-51
2022/09/11 05:25:41;;;;;;;14.90;13.10;;;15.40;99.90;;;;;;5051922;28;20025;-50
2022/09/11 05:28:28;;;;;;;15.18;12.57;;;15.40;99.90;;;;;;5051711;28;20024;-49
2022/09/11 05:31:17;;;;;;;18.33;16.38;;;15.50;99.90;;;;;;5051900;28;20021;-55
2022/09/11 05:34:03;;;;;;;16.45;14.70;;;15.40;99.90;;;;;;5052388;28;20032;-54
2022/09/11 05:36:50;;;;;;;19.02;15.20;;;15.50;99.90;;;;;;5052231;28;20504;-49
2022/09/11 05:39:36;;;;;;;19.58;16.27;;;15.60;99.90;;;;;;5047869;28;20068;-52
2022/09/11 05:42:22;;;;;;;19.95;17.15;;;15.40;99.90;;;;;;5050924;28;20509;-53
2022/09/11 05:45:08;;;;;;;21.90;18.77;;;15.60;99.90;;;;;;5051135;28;20033;-51
2022/09/11 05:47:55;;;;;;;25.83;21.15;;;15.60;99.90;;;;;;5051636;28;20029;-52
2022/09/11 05:50:40;;;;;;;27.23;23.30;;;15.60;99.90;;;;;;5046931;28;20650;-48
2022/09/11 05:53:30;;;;;;;29.83;25.10;;;15.50;99.90;;;;;;5048123;28;20397;-48
2022/09/11 05:56:20;;;;;;;28.17;25.00;;;15.60;99.90;;;;;;5052179;28;20112;-51
2022/09/11 05:59:13;;;;;;;32.33;28.23;;;15.60;99.90;;;;;;5052385;28;20040;-51
2022/09/11 06:01:59;;;;;;;33.30;28.52;;;15.60;99.90;;;;;;5051079;28;20021;-50
2022/09/11 06:04:45;;;;;;;33.42;27.38;;;15.50;99.90;;;;;;5051588;28;20017;-51
2022/09/11 06:07:31;;;;;;;35.67;29.23;;;15.60;99.90;;;;;;5051446;28;20021;-51
2022/09/11 06:10:17;;;;;;;36.25;29.23;;;15.50;99.90;;;;;;5050680;28;20029;-53
2022/09/11 06:13:03;;;;;;;39.08;30.58;;;15.50;99.90;;;;;;5052340;28;20025;-49
2022/09/11 06:15:49;;;;;;;42.78;32.42;;;15.50;99.90;;;;;;5051649;28;20036;-52
2022/09/11 06:18:35;;;;;;;41.60;32.05;;;15.50;99.90;;;;;;5051157;28;20104;-50
2022/09/11 06:21:23;;;;;;;35.70;30.52;;;15.50;99.90;;;;;;5042614;28;20091;-54
2022/09/11 06:24:09;;;;;;;31.15;27.65;;;15.60;99.90;;;;;;5050739;28;20559;-51
2022/09/11 06:26:55;;;;;;;32.80;27.70;;;15.70;99.90;;;;;;5050994;28;20104;-51
2022/09/11 06:29:43;;;;;;;29.00;25.73;;;15.70;99.90;;;;;;5037014;28;20128;-48
2022/09/11 06:32:29;;;;;;;31.55;24.98;;;15.60;99.90;;;;;;5044682;28;20493;-51
2022/09/11 06:35:15;;;;;;;26.38;23.30;;;15.60;99.90;;;;;;5049685;28;20037;-49
2022/09/11 06:38:01;;;;;;;29.58;24.70;;;15.50;99.90;;;;;;5051562;28;20038;-50
2022/09/11 06:40:47;;;;;;;33.78;25.75;;;15.40;99.90;;;;;;5050454;28;20031;-50
2022/09/11 06:43:33;;;;;;;36.03;25.88;;;15.40;99.90;;;;;;5049958;28;20501;-50
2022/09/11 06:46:22;;;;;;;39.13;28.23;;;15.40;99.90;;;;;;5051361;28;20439;-52
2022/09/11 06:49:08;;;;;;;42.33;30.45;;;15.30;99.90;;;;;;5053193;28;20484;-53
2022/09/11 06:51:54;;;;;;;44.65;31.35;;;15.30;99.90;;;;;;5050003;28;20033;-53
2022/09/11 06:54:40;;;;;;;42.58;29.60;;;15.40;99.90;;;;;;5050474;28;20104;-49
2022/09/11 06:57:27;;;;;;;41.63;29.70;;;15.30;99.90;;;;;;5034844;28;20025;-55
2022/09/11 07:00:13;;;;;;;43.58;29.00;;;15.30;99.90;;;;;;5050316;28;20572;-55
2022/09/11 07:03:00;;;;;;;39.95;28.58;;;15.30;99.90;;;;;;5052006;28;20029;-53
2022/09/11 07:05:47;;;;;;;38.88;28.10;;;15.30;99.90;;;;;;5051132;28;20029;-50
2022/09/11 07:08:32;;;;;;;38.28;27.27;;;15.30;99.90;;;;;;5050276;28;20440;-55
2022/09/11 07:11:19;;;;;;;37.00;27.35;;;15.40;99.90;;;;;;5050920;28;20404;-54
2022/09/11 07:14:06;;;;;;;35.05;26.05;;;15.40;99.90;;;;;;5051375;28;20467;-56
2022/09/11 07:16:53;;;;;;;36.22;24.95;;;15.50;99.90;;;;;;5050127;28;20079;-53
2022/09/11 07:19:39;;;;;;;30.88;22.30;;;15.50;99.90;;;;;;5049741;28;20497;-51
2022/09/11 07:22:25;;;;;;;28.67;21.55;;;15.50;99.90;;;;;;5048440;28;20048;-53
2022/09/11 07:25:12;;;;;;;27.33;21.45;;;15.40;99.90;;;;;;5035894;28;20063;-54
2022/09/11 07:27:58;;;;;;;28.65;21.20;;;15.50;99.90;;;;;;5036334;28;20025;-52
2022/09/11 07:30:44;;;;;;;31.02;22.40;;;15.40;99.90;;;;;;5050076;28;20056;-51
2022/09/11 07:33:30;;;;;;;26.20;20.48;;;15.50;99.90;;;;;;5049726;28;20036;-51
2022/09/11 07:36:25;;;;;;;28.42;22.02;;;15.60;99.90;;;;;;5051609;28;20025;-51
2022/09/11 07:39:14;;;;;;;29.25;21.63;;;15.60;99.90;;;;;;5051894;28;20456;-49
2022/09/11 07:42:00;;;;;;;25.15;20.88;;;15.50;99.90;;;;;;5040239;28;20018;-50
2022/09/11 07:44:46;;;;;;;26.00;20.52;;;15.50;99.90;;;;;;5049971;28;20028;-49
2022/09/11 07:47:35;;;;;;;25.48;19.88;;;15.50;99.90;;;;;;5029489;28;20029;-51
2022/09/11 07:50:23;;;;;;;26.70;20.92;;;15.60;99.90;;;;;;5036144;28;20029;-55
2022/09/11 07:53:09;;;;;;;30.73;21.92;;;15.50;99.90;;;;;;5045073;28;20063;-50
2022/09/11 07:55:55;;;;;;;24.55;21.45;;;15.40;99.90;;;;;;5046332;28;20397;-52
2022/09/11 07:58:42;;;;;;;26.35;20.33;;;15.40;99.90;;;;;;5043986;28;20031;-53
2022/09/11 08:01:30;;;;;;;26.25;21.25;;;15.50;99.90;;;;;;5030740;28;20416;-56
2022/09/11 08:04:16;;;;;;;27.75;21.00;;;15.40;99.90;;;;;;5037048;28;20017;-51
2022/09/11 08:07:02;;;;;;;27.50;21.88;;;15.50;99.90;;;;;;5064435;28;20083;-55
2022/09/11 08:09:48;;;;;;;24.98;20.73;;;15.60;99.90;;;;;;5051552;28;20036;-51
2022/09/11 08:12:37;;;;;;;21.90;19.60;;;15.60;99.90;;;;;;5023285;28;20059;-50
2022/09/11 08:15:23;;;;;;;23.60;18.92;;;15.60;99.90;;;;;;5048073;28;20449;-52
2022/09/11 08:18:09;;;;;;;19.35;16.33;;;15.70;99.90;;;;;;5047971;28;20028;-52
2022/09/11 08:21:07;;;;;;;18.08;15.88;;;15.70;99.90;;;;;;5035366;28;20540;-54
2022/09/11 08:23:53;;;;;;;16.00;14.18;;;15.80;99.90;;;;;;5050043;28;20096;-50
2022/09/11 08:26:39;;;;;;;15.23;13.63;;;15.70;99.90;;;;;;5035681;28;20513;-53
2022/09/11 08:29:25;;;;;;;14.02;12.52;;;15.80;99.90;;;;;;5049262;28;20109;-54
2022/09/11 08:32:12;;;;;;;14.68;12.70;;;15.80;99.90;;;;;;5048462;28;20036;-52
2022/09/11 08:34:58;;;;;;;15.93;13.57;;;15.80;99.90;;;;;;5035887;28;20033;-49
2022/09/11 08:37:44;;;;;;;14.00;12.45;;;15.80;99.90;;;;;;5046668;28;20078;-51
2022/09/11 08:40:30;;;;;;;17.15;14.80;;;15.90;99.90;;;;;;5055043;28;20116;-53
2022/09/11 08:43:25;;;;;;;17.23;14.85;;;15.70;99.90;;;;;;5038082;28;20056;-50
2022/09/11 08:46:12;;;;;;;16.90;14.77;;;15.70;99.90;;;;;;5048892;28;20069;-50
2022/09/11 08:48:58;;;;;;;16.65;14.88;;;15.80;99.90;;;;;;5039168;28;20037;-54
2022/09/11 08:51:46;;;;;;;15.88;14.10;;;15.80;99.90;;;;;;5053999;28;20037;-54
2022/09/11 08:54:37;;;;;;;14.23;12.30;;;15.70;99.90;;;;;;5053175;28;20219;-53
2022/09/11 08:57:39;;;;;;;17.85;14.90;;;15.70;99.90;;;;;;5016814;28;20041;-49
2022/09/11 09:00:54;;;;;;;18.35;15.10;;;15.70;99.90;;;;;;5041127;28;20044;-49
2022/09/11 09:04:02;;;;;;;16.55;14.20;;;15.60;99.90;;;;;;5029757;28;20060;-65
2022/09/11 09:07:21;;;;;;;18.00;15.13;;;15.80;99.90;;;;;;5053805;28;20025;-51
2022/09/11 09:10:28;;;;;;;16.23;14.40;;;15.80;99.90;;;;;;5036914;28;20068;-51
2022/09/11 09:13:14;;;;;;;14.40;12.90;;;15.90;99.90;;;;;;5051333;28;20040;-51
2022/09/11 09:16:24;;;;;;;15.68;13.48;;;16.10;99.90;;;;;;5046918;28;20537;-54
2022/09/11 09:19:20;;;;;;;17.13;13.25;;;16.10;99.90;;;;;;5047798;28;20037;-53
2022/09/11 09:22:22;;;;;;;14.90;12.60;;;16.20;99.90;;;;;;5032604;28;20013;-48
2022/09/11 09:25:17;;;;;;;18.58;13.65;;;16.10;99.90;;;;;;5034329;28;20021;-51
2022/09/11 09:28:24;;;;;;;16.52;12.60;;;15.80;99.90;;;;;;5049510;28;20495;-50
2022/09/11 09:31:13;;;;;;;13.05;11.65;;;15.90;99.90;;;;;;5045709;28;20096;-56
2022/09/11 09:34:08;;;;;;;14.02;11.45;;;16.10;99.90;;;;;;5046054;28;20108;-53
2022/09/11 09:37:20;;;;;;;13.43;11.00;;;16.20;99.90;;;;;;5048356;28;20043;-50
2022/09/11 09:40:14;;;;;;;11.50;9.60;;;16.30;99.90;;;;;;5047391;28;20037;-48
2022/09/11 09:43:39;;;;;;;12.45;10.88;;;16.30;99.90;;;;;;5046378;28;20599;-51
2022/09/11 09:46:40;;;;;;;12.85;10.25;;;16.20;99.90;;;;;;5048186;28;20675;-54
2022/09/11 09:49:34;;;;;;;13.75;10.65;;;16.20;99.90;;;;;;5037090;28;20029;-54
2022/09/11 09:52:23;;;;;;;11.48;10.27;;;16.30;99.90;;;;;;5050933;28;20044;-54
2022/09/11 09:55:18;;;;;;;13.57;10.57;;;16.20;99.90;;;;;;5048345;28;20026;-51
2022/09/11 09:58:06;;;;;;;11.68;9.60;;;16.10;99.90;;;;;;5068759;28;20511;-52
2022/09/11 10:00:52;;;;;;;12.85;9.85;;;16.10;99.90;;;;;;5040345;28;20041;-51
2022/09/11 10:03:38;;;;;;;12.48;10.18;;;16.20;99.90;;;;;;5042133;28;20527;-55
2022/09/11 10:06:25;;;;;;;11.80;9.45;;;16.20;99.90;;;;;;5048555;28;20591;-54
2022/09/11 10:09:23;;;;;;;9.77;8.77;;;16.10;99.90;;;;;;5049148;28;20112;-54
2022/09/11 10:12:24;;;;;;;10.77;8.68;;;16.30;99.90;;;;;;5049535;28;20389;-53
2022/09/11 10:15:19;;;;;;;10.90;8.88;;;16.60;99.90;;;;;;5050116;28;20033;-54
2022/09/11 10:18:31;;;;;;;13.68;9.95;;;16.80;99.90;;;;;;5050375;28;20037;-51
2022/09/11 10:21:24;;;;;;;12.00;8.13;;;17.10;99.90;;;;;;5049970;28;20033;-53
2022/09/11 10:24:16;;;;;;;10.82;7.93;;;17.10;99.90;;;;;;5049768;28;20060;-51
2022/09/11 10:27:02;;;;;;;11.35;8.18;;;17.10;99.90;;;;;;5050594;28;20056;-50
2022/09/11 10:29:53;;;;;;;9.30;7.32;;;16.90;99.90;;;;;;5048710;28;20033;-50
2022/09/11 10:32:41;;;;;;;9.15;7.63;;;16.90;99.90;;;;;;5047729;28;20115;-52
2022/09/11 10:35:30;;;;;;;10.25;7.15;;;16.70;99.90;;;;;;5050424;28;20028;-52
2022/09/11 10:38:18;;;;;;;7.47;6.40;;;16.60;99.90;;;;;;5044263;28;20055;-51
2022/09/11 10:41:13;;;;;;;11.38;7.47;;;16.60;99.90;;;;;;5044626;28;20059;-51
2022/09/11 10:44:01;;;;;;;7.68;6.80;;;16.80;99.90;;;;;;5048345;28;20035;-51
2022/09/11 10:47:05;;;;;;;8.95;6.32;;;16.70;99.90;;;;;;5054643;28;20620;-55
2022/09/11 10:50:09;;;;;;;17.67;10.07;;;16.60;99.90;;;;;;5054286;28;20029;-58
2022/09/11 10:53:19;;;;;;;7.18;6.47;;;16.60;99.90;;;;;;5050378;28;20040;-55
2022/09/11 10:56:07;;;;;;;9.82;6.70;;;16.70;99.90;;;;;;5047402;28;20124;-55
2022/09/11 10:58:59;;;;;;;8.15;7.18;;;16.80;99.90;;;;;;5047282;28;20037;-53
2022/09/11 11:01:46;;;;;;;7.80;6.75;;;16.80;99.90;;;;;;5047864;28;20040;-49
2022/09/11 11:04:32;;;;;;;8.50;7.60;;;16.70;99.90;;;;;;5047753;28;20055;-55
2022/09/11 11:07:49;;;;;;;11.48;8.25;;;16.60;99.90;;;;;;5048370;28;20021;-50
2022/09/11 11:10:38;;;;;;;9.15;8.25;;;16.50;99.90;;;;;;5045411;28;20021;-52
2022/09/11 11:13:46;;;;;;;10.32;9.15;;;16.40;99.90;;;;;;5033679;28;20926;-51
2022/09/11 11:16:53;;;;;;;10.82;9.18;;;16.30;99.90;;;;;;5044148;28;20033;-53
2022/09/11 11:19:47;;;;;;;13.20;9.48;;;16.30;99.90;;;;;;5045261;28;20048;-51
2022/09/11 11:22:59;;;;;;;11.32;9.73;;;16.40;99.90;;;;;;5047588;28;20013;-53
2022/09/11 11:25:56;;;;;;;12.65;10.27;;;16.60;99.90;;;;;;5047535;28;20029;-52
2022/09/11 11:29:27;;;;;;;15.02;10.52;;;16.70;99.90;;;;;;5041190;28;20025;-51
2022/09/11 11:32:34;;;;;;;13.40;11.02;;;16.90;99.90;;;;;;5027451;28;20414;-53
2022/09/11 11:35:38;;;;;;;14.82;11.50;;;17.10;99.90;;;;;;5028459;28;20025;-54
2022/09/11 11:38:59;;;;;;;16.98;12.48;;;17.10;99.90;;;;;;5047406;28;20563;-53
2022/09/11 11:41:59;;;;;;;16.80;12.60;;;17.20;99.90;;;;;;5040949;28;20037;-53
2022/09/11 11:44:50;;;;;;;20.30;12.48;;;17.30;99.90;;;;;;5031884;28;20036;-55
2022/09/11 11:47:41;;;;;;;16.67;12.75;;;17.20;99.90;;;;;;5043115;28;20110;-54
2022/09/11 11:50:47;;;;;;;17.35;13.65;;;17.30;99.90;;;;;;5046475;28;20064;-57
2022/09/11 11:54:01;;;;;;;18.98;13.63;;;17.30;99.90;;;;;;5041658;28;20532;-52
2022/09/11 11:56:50;;;;;;;14.65;12.13;;;17.40;99.90;;;;;;5046343;28;20080;-56
2022/09/11 11:59:43;;;;;;;15.98;12.52;;;17.50;99.90;;;;;;5044684;28;20121;-53
2022/09/11 12:03:06;;;;;;;13.90;11.63;;;17.60;99.90;;;;;;5049011;28;20021;-50
2022/09/11 12:05:53;;;;;;;13.60;11.40;;;17.70;99.90;;;;;;5038127;28;20024;-55
2022/09/11 12:08:44;;;;;;;13.40;11.13;;;17.50;99.90;;;;;;5038018;28;20104;-52
2022/09/11 12:11:31;;;;;;;12.95;10.38;;;17.60;99.90;;;;;;5033571;28;20418;-51
2022/09/11 12:14:30;;;;;;;14.18;10.98;;;17.80;99.90;;;;;;5046186;28;20113;-54
2022/09/11 12:17:28;;;;;;;13.57;10.27;;;17.90;99.90;;;;;;5052927;28;20052;-48
2022/09/11 12:20:41;;;;;;;11.00;9.90;;;17.90;99.90;;;;;;5037151;28;20411;-56
2022/09/11 12:23:33;;;;;;;11.02;9.82;;;18.10;99.90;;;;;;5034621;28;20397;-53
2022/09/11 12:26:21;;;;;;;11.23;10.05;;;18.30;99.90;;;;;;5025560;28;20456;-53
2022/09/11 12:29:19;;;;;;;12.10;9.20;;;18.30;99.90;;;;;;5041912;28;20489;-51
2022/09/11 12:32:23;;;;;;;12.07;10.05;;;18.30;99.90;;;;;;5045618;28;20055;-54
2022/09/11 12:35:18;;;;;;;12.03;8.90;;;18.30;99.90;;;;;;5033648;28;20025;-49
2022/09/11 12:38:13;;;;;;;13.55;9.38;;;18.50;99.90;;;;;;5052717;28;20846;-51
2022/09/11 12:41:06;;;;;;;15.68;13.10;;;18.70;99.90;;;;;;5050323;28;20063;-53
2022/09/11 12:43:53;;;;;;;11.18;9.40;;;19.00;99.90;;;;;;5041175;28;20087;-49
2022/09/11 12:46:39;;;;;;;11.65;9.65;;;19.10;99.90;;;;;;4998674;28;20038;-57
2022/09/11 12:49:26;;;;;;;10.88;9.00;;;19.20;99.90;;;;;;5033006;28;20448;-55
2022/09/11 12:52:24;;;;;;;9.73;8.23;;;19.40;99.90;;;;;;5032720;28;20029;-54
2022/09/11 12:55:32;;;;;;;9.20;7.57;;;19.20;99.90;;;;;;5011539;28;20068;-58
2022/09/11 12:58:18;;;;;;;10.27;7.18;;;19.10;99.90;;;;;;5013259;28;20023;-55
2022/09/11 13:01:11;;;;;;;10.30;7.47;;;19.20;99.90;;;;;;5012337;28;20037;-57
2022/09/11 13:04:30;;;;;;;6.93;6.22;;;19.20;99.90;;;;;;5013356;28;20112;-56
2022/09/11 13:07:40;;;;;;;6.90;5.97;;;19.20;99.90;;;;;;5017504;28;20057;-56
2022/09/11 13:10:37;;;;;;;7.40;6.20;;;19.40;99.90;;;;;;5031255;28;20497;-59
2022/09/11 13:13:36;;;;;;;8.05;6.28;;;19.70;99.90;;;;;;5030285;28;20106;-58
2022/09/11 13:16:28;;;;;;;7.35;5.88;;;20.00;99.40;;;;;;5031664;28;20651;-57
2022/09/11 13:19:18;;;;;;;9.15;6.13;;;20.30;99.00;;;;;;5016327;28;20504;-56
2022/09/11 13:22:25;;;;;;;7.45;6.47;;;20.70;97.50;;;;;;5030593;28;20734;-57
2022/09/11 13:25:13;;;;;;;9.10;6.50;;;21.00;96.70;;;;;;5028269;28;20657;-57
2022/09/11 13:28:01;;;;;;;8.27;5.97;;;21.20;96.00;;;;;;5025491;28;20040;-58
2022/09/11 13:30:53;;;;;;;7.15;5.90;;;21.10;95.00;;;;;;5026961;28;20033;-56
2022/09/11 13:33:39;;;;;;;8.27;5.80;;;20.90;94.90;;;;;;4998453;28;20029;-57
2022/09/11 13:36:26;;;;;;;9.45;6.00;;;20.60;94.90;;;;;;5025166;28;20037;-58
2022/09/11 13:39:15;;;;;;;6.47;5.50;;;20.60;95.00;;;;;;5025140;28;20040;-56
2022/09/11 13:42:02;;;;;;;8.07;5.65;;;20.70;95.00;;;;;;5025159;28;20041;-57
2022/09/11 13:44:56;;;;;;;6.25;5.43;;;20.70;95.10;;;;;;5029400;28;20025;-57
2022/09/11 13:47:42;;;;;;;7.03;5.80;;;21.00;95.10;;;;;;5029510;28;20030;-55
2022/09/11 13:50:29;;;;;;;6.35;5.63;;;21.10;95.10;;;;;;5029376;28;20087;-58
2022/09/11 13:53:19;;;;;;;6.70;5.65;;;21.00;95.60;;;;;;5030474;28;20041;-57
2022/09/11 13:56:19;;;;;;;7.25;5.70;;;21.40;94.80;;;;;;5031615;28;20045;-55
2022/09/11 13:59:34;;;;;;;6.70;5.53;;;21.40;94.70;;;;;;5028928;28;20117;-58
2022/09/11 14:02:23;;;;;;;7.38;5.30;;;21.60;94.30;;;;;;5030027;28;20041;-57
2022/09/11 14:05:27;;;;;;;6.85;5.47;;;21.40;94.20;;;;;;5017900;28;20026;-58
2022/09/11 14:08:21;;;;;;;7.72;6.03;;;21.20;94.40;;;;;;5031612;28;20030;-58
2022/09/11 14:11:12;;;;;;;7.90;5.78;;;20.70;94.70;;;;;;5020131;28;20030;-59
2022/09/11 14:14:07;;;;;;;9.32;7.88;;;20.60;95.40;;;;;;5030985;28;20076;-54
2022/09/11 14:17:02;;;;;;;8.77;5.85;;;20.70;95.20;;;;;;5017685;28;20167;-55
2022/09/11 14:19:51;;;;;;;7.50;5.93;;;20.70;95.20;;;;;;5010738;28;20087;-57
2022/09/11 14:22:37;;;;;;;7.13;5.90;;;20.60;95.20;;;;;;5031180;28;20029;-56
2022/09/11 14:25:23;;;;;;;9.32;6.60;;;20.60;95.40;;;;;;5026583;28;20339;-56
2022/09/11 14:28:39;;;;;;;6.97;6.28;;;20.90;95.40;;;;;;5010463;28;20113;-58
2022/09/11 14:31:33;;;;;;;6.93;6.18;;;21.10;95.10;;;;;;5020339;28;20567;-57
2022/09/11 14:34:24;;;;;;;7.55;5.90;;;21.70;94.40;;;;;;5036708;28;20104;-56
2022/09/11 14:37:15;;;;;;;6.47;5.63;;;22.10;93.70;;;;;;5029175;28;20405;-58
2022/09/11 14:40:05;;;;;;;6.78;6.05;;;22.50;93.00;;;;;;5031497;28;20033;-56
2022/09/11 14:42:51;;;;;;;7.55;6.20;;;22.90;92.60;;;;;;5031359;28;20057;-56